Airfield :
LOGIN :

Register | Disclaimer

   EN    FR    IT 

 










Legend :    VFR   Marginal VFR   IFR   Intensive IFR   Very Intensive IFR
Visi :
Ceiling :
>= 8 km
>= 3000ft
5 to 8 km
1000 to 3000 ft
1500m to 5 km
500 to 1000 ft
800 to 1500m
200 to 500 ft
< 800m
< 200 ft
Symbols :   Thunderstorms  Fog  Heavy snow  Heavy precipitations  Wind > 20 kt
SIGMETs :     Misc.  Thunderstorms  Icing  Turbulence  Mountain Waves  Volcanic Ashes






- Airport Elevation : 76 ft
- IATA code : KID


ESMK - Kristianstad

CURRENT METAR :
  • 190620Z AUTO 28008KT 9999 OVC014/// 05/03 Q1024

EXPIRED METARs :
  • 190550Z AUTO 28007KT 9999 OVC015/// 05/03 Q1024
  • 190520Z AUTO 28006KT 9999 OVC014/// 05/03 Q1023
  • 190450Z AUTO 28006KT 9999 OVC016/// 05/03 Q1023
  • 190420Z AUTO 28006KT 9999 OVC019/// 04/03 Q1022
  • 190350Z AUTO 28006KT 250V310 9999 BKN019/// 04/03 Q1022

Expired Forecast.



MET'MAP, your aeronautical weather chart ! - Copyright ORBIFLY December 2007 - Disclaimer

ORBIFLY MET'MAP TEAM :

Programming & Development : Alexandra Zaïnal
Concept & original design : Baudouin d'Aumeries
Assistance for programming : Marc-Olivier Méhu
Technical & hardware support : Manuel Goepfert

Contact : metmap@orbifly.com




SOURCES & CREDITS :

   NOAA